Time;durP1;ratioP1;P1;durP2;ratioP2;P2;SDS_P1;SDS_P2;PMS_P1;PMS_P2;Temp;Humidity;BMP_temperature;BMP_pressure;BME280_temperature;BME280_humidity;BME280_pressure;Samples;Min_cycle;Max_cycle;Signal;HPM_P1;HPM_P2
2021/03/25 00:01:53;;;;;;;18.15;9.13;;;77.70;1843.20;;;;;;5053950;28;20463;-57
2021/03/25 00:04:19;;;;;;;14.00;9.18;;;77.60;1843.20;;;;;;5053874;28;20083;-57
2021/03/25 00:06:51;;;;;;;19.25;10.48;;;77.60;1868.80;;;;;;5036230;28;20390;-58
2021/03/25 00:09:25;;;;;;;16.27;9.25;;;77.60;1868.80;;;;;;5053222;28;20017;-57
2021/03/25 00:11:51;;;;;;;18.77;8.95;;;77.60;1843.20;;;;;;5053676;28;20021;-58
2021/03/25 00:14:18;;;;;;;15.20;9.02;;;77.60;1894.40;;;;;;5053632;28;20033;-58
2021/03/25 00:16:43;;;;;;;17.38;9.38;;;77.50;1868.80;;;;;;5053817;28;20048;-58
2021/03/25 00:19:10;;;;;;;17.17;10.02;;;77.60;1868.80;;;;;;5042629;28;20053;-58
2021/03/25 00:21:38;;;;;;;17.50;9.25;;;77.50;1868.80;;;;;;5051391;28;20471;-60
2021/03/25 00:24:04;;;;;;;20.02;11.00;;;77.40;1868.80;;;;;;5032814;28;20041;-59
2021/03/25 00:26:30;;;;;;;19.70;9.38;;;77.30;1894.40;;;;;;5047831;28;20025;-56
2021/03/25 00:28:56;;;;;;;16.95;9.35;;;77.30;1920.00;;;;;;5030751;28;20037;-58
2021/03/25 00:31:22;;;;;;;17.55;9.98;;;77.30;1920.00;;;;;;5023602;28;20029;-58
2021/03/25 00:33:48;;;;;;;14.65;8.88;;;77.40;1894.40;;;;;;5029752;28;20025;-59
2021/03/25 00:36:14;;;;;;;16.77;8.73;;;77.30;1868.80;;;;;;5027893;28;20029;-61
2021/03/25 00:38:40;;;;;;;17.88;9.90;;;77.40;1868.80;;;;;;5043737;28;20024;-68
2021/03/25 00:41:06;;;;;;;16.27;9.82;;;77.30;1817.60;;;;;;5051159;28;20414;-64
2021/03/25 00:43:31;;;;;;;14.55;8.70;;;77.40;1843.20;;;;;;5048687;28;20517;-59
2021/03/25 00:45:57;;;;;;;15.35;8.40;;;77.30;1817.60;;;;;;5029403;28;20036;-62
2021/03/25 00:48:24;;;;;;;16.15;8.63;;;77.30;1843.20;;;;;;5031791;28;20017;-59
2021/03/25 00:50:56;;;;;;;16.98;8.98;;;77.50;1843.20;;;;;;5052308;28;20020;-61
2021/03/25 00:53:28;;;;;;;15.82;8.52;;;77.40;1843.20;;;;;;5048428;28;20047;-59
2021/03/25 00:55:54;;;;;;;15.52;9.02;;;77.30;1868.80;;;;;;5052880;28;20037;-56
2021/03/25 00:58:20;;;;;;;15.70;8.73;;;77.30;1894.40;;;;;;5052585;28;20025;-56
2021/03/25 01:00:48;;;;;;;18.90;9.15;;;77.30;1868.80;;;;;;5052976;28;20021;-56
2021/03/25 01:03:16;;;;;;;18.30;9.88;;;77.30;1817.60;;;;;;5052479;28;20032;-57
2021/03/25 01:05:42;;;;;;;16.45;9.13;;;77.30;1868.80;;;;;;5052683;28;20017;-56
2021/03/25 01:08:09;;;;;;;16.13;8.82;;;77.50;1817.60;;;;;;5052519;28;20025;-57
2021/03/25 01:10:38;;;;;;;18.55;9.80;;;77.50;1843.20;;;;;;5052171;28;20454;-57
2021/03/25 01:13:11;;;;;;;17.05;9.55;;;77.50;1868.80;;;;;;5052601;28;20056;-56
2021/03/25 01:15:37;;;;;;;19.35;9.73;;;77.50;1843.20;;;;;;5052906;28;20513;-56
2021/03/25 01:18:06;;;;;;;17.65;9.45;;;77.50;1817.60;;;;;;5052884;28;20020;-56
2021/03/25 01:20:35;;;;;;;19.38;10.48;;;77.40;1843.20;;;;;;5052443;28;20048;-57
2021/03/25 01:23:01;;;;;;;17.30;9.02;;;77.30;1843.20;;;;;;5052371;28;20089;-57
2021/03/25 01:25:28;;;;;;;15.85;9.38;;;77.40;1817.60;;;;;;5052268;28;20455;-57
2021/03/25 01:27:58;;;;;;;16.63;9.05;;;77.50;1817.60;;;;;;5052318;28;20021;-56
2021/03/25 01:30:25;;;;;;;19.15;10.38;;;77.60;1792.00;;;;;;5050900;28;20033;-55
2021/03/25 01:32:52;;;;;;;14.18;9.38;;;77.50;1817.60;;;;;;5050559;28;20036;-57
2021/03/25 01:35:18;;;;;;;18.00;9.50;;;77.60;1817.60;;;;;;5052151;28;20017;-59
2021/03/25 01:37:46;;;;;;;16.88;8.48;;;77.50;1843.20;;;;;;5052021;28;20025;-59
2021/03/25 01:40:17;;;;;;;15.82;10.00;;;77.60;1843.20;;;;;;5052273;28;20382;-59
2021/03/25 01:42:43;;;;;;;17.83;10.50;;;77.40;1843.20;;;;;;5037944;28;20395;-58
2021/03/25 01:45:29;;;;;;;18.23;9.25;;;77.60;1817.60;;;;;;5051487;28;20053;-57
2021/03/25 01:47:56;;;;;;;14.52;9.20;;;77.50;1843.20;;;;;;5034697;28;20399;-59
2021/03/25 01:50:22;;;;;;;21.70;11.25;;;77.60;1843.20;;;;;;5052369;28;20545;-59
2021/03/25 01:52:56;;;;;;;20.95;11.10;;;77.60;1868.80;;;;;;5051713;28;20052;-61
2021/03/25 01:55:54;;;;;;;28.58;14.27;;;77.70;1868.80;;;;;;5051918;28;20052;-58
2021/03/25 01:58:47;;;;;;;28.27;16.48;;;102.40;1894.40;;;;;;4971000;28;20035;-60
2021/03/25 02:01:27;;;;;;;24.88;14.85;;;102.40;1894.40;;;;;;4970920;28;20094;-57
2021/03/25 02:04:36;;;;;;;36.33;18.80;;;102.40;1945.60;;;;;;4971012;28;20073;-58
2021/03/25 02:07:17;;;;;;;35.35;18.85;;;102.50;1945.60;;;;;;4857862;29;20061;-60
2021/03/25 02:09:53;;;;;;;30.88;17.98;;;102.40;1996.80;;;;;;4856263;29;20039;-60
2021/03/25 02:12:49;;;;;;;30.80;16.83;;;102.40;1996.80;;;;;;4856977;29;20619;-60
2021/03/25 02:15:23;;;;;;;32.83;17.67;;;77.70;2022.40;;;;;;4857340;29;20236;-60
2021/03/25 02:18:33;;;;;;;33.00;18.17;;;102.40;2022.40;;;;;;4857803;29;20053;-58
2021/03/25 02:21:14;;;;;;;35.92;18.52;;;77.70;2048.00;;;;;;4857810;29;20036;-57
2021/03/25 02:23:52;;;;;;;35.50;19.30;;;77.50;2099.20;;;;;;4856734;29;20411;-58
2021/03/25 02:26:35;;;;;;;33.85;18.70;;;77.50;2099.20;;;;;;4857081;29;20384;-59
2021/03/25 02:29:38;;;;;;;29.95;17.98;;;77.60;2099.20;;;;;;4857641;29;20047;-59
2021/03/25 02:32:13;;;;;;;33.25;19.60;;;77.60;2099.20;;;;;;4857280;29;20049;-58
2021/03/25 02:34:44;;;;;;;34.63;19.98;;;77.50;2124.80;;;;;;4871320;29;20032;-60
2021/03/25 02:37:19;;;;;;;38.72;18.42;;;77.50;2099.20;;;;;;4963763;28;20386;-59
2021/03/25 02:39:52;;;;;;;30.58;18.33;;;77.50;2099.20;;;;;;5052099;28;20167;-61
2021/03/25 02:42:21;;;;;;;31.98;17.30;;;77.40;2150.40;;;;;;5051075;28;20032;-61
2021/03/25 02:45:07;;;;;;;;;;;77.50;2150.40;;;;;;5052094;28;20122;-61
2021/03/25 02:47:37;;;;;;;38.20;18.80;;;77.30;2176.00;;;;;;5051574;28;19909;-63
2021/03/25 02:50:12;;;;;;;33.22;18.90;;;77.30;2176.00;;;;;;5051663;28;20043;-60
2021/03/25 02:52:53;;;;;;;32.75;17.80;;;77.30;2176.00;;;;;;5050765;28;20039;-58
2021/03/25 02:55:19;;;;;;;34.22;18.13;;;77.10;2201.60;;;;;;5032927;28;20387;-58
2021/03/25 02:57:53;;;;;;;32.70;17.25;;;77.20;2201.60;;;;;;5050919;28;20033;-60
2021/03/25 03:00:28;;;;;;;33.67;18.50;;;77.30;2176.00;;;;;;5053676;28;20025;-60
2021/03/25 03:03:05;;;;;;;30.08;17.08;;;77.30;2176.00;;;;;;5054748;28;20017;-59
2021/03/25 03:05:35;;;;;;;33.63;17.60;;;77.10;2227.20;;;;;;5054858;28;20017;-60
2021/03/25 03:08:16;;;;;;;31.67;17.55;;;77.10;2227.20;;;;;;5054550;28;20025;-60
2021/03/25 03:10:46;;;;;;;29.90;15.82;;;77.00;2227.20;;;;;;5054517;28;20515;-60
2021/03/25 03:13:16;;;;;;;31.85;17.60;;;77.00;2227.20;;;;;;5054567;28;20349;-60
2021/03/25 03:15:44;;;;;;;;;;;77.20;2227.20;;;;;;5055161;28;20078;-64
2021/03/25 03:18:22;;;;;;;26.95;16.20;;;77.30;2227.20;;;;;;5054598;28;19940;-60
2021/03/25 03:20:57;;;;;;;37.20;19.05;;;77.30;2201.60;;;;;;5055050;28;20439;-61
2021/03/25 03:23:26;;;;;;;29.23;17.58;;;77.30;2201.60;;;;;;5054397;28;20108;-60
2021/03/25 03:25:55;;;;;;;28.92;16.15;;;77.20;2227.20;;;;;;5054665;28;20029;-60
2021/03/25 03:28:33;;;;;;;29.50;16.55;;;77.30;2227.20;;;;;;5054137;28;20509;-59
2021/03/25 03:31:05;;;;;;;31.33;18.23;;;77.20;2227.20;;;;;;5054482;28;20475;-58
2021/03/25 03:33:38;;;;;;;30.65;16.10;;;77.30;2227.20;;;;;;5053077;28;20033;-58
2021/03/25 03:36:14;;;;;;;26.95;16.70;;;77.20;2227.20;;;;;;5053472;28;20139;-60
2021/03/25 03:38:52;;;;;;;33.15;16.85;;;77.30;2227.20;;;;;;5053872;28;20033;-60
2021/03/25 03:41:24;;;;;;;28.95;17.80;;;77.00;2227.20;;;;;;5054332;28;20021;-59
2021/03/25 03:43:51;;;;;;;29.42;17.30;;;77.00;2227.20;;;;;;5053511;28;20049;-59
2021/03/25 03:46:21;;;;;;;30.77;16.30;;;77.00;2227.20;;;;;;5054064;28;20040;-59
2021/03/25 03:48:51;;;;;;;28.58;17.05;;;77.00;2227.20;;;;;;5053730;28;20104;-59
2021/03/25 03:51:27;;;;;;;29.20;16.75;;;77.00;2227.20;;;;;;5053696;28;20020;-59
2021/03/25 03:54:00;;;;;;;28.65;17.00;;;76.90;2227.20;;;;;;5054142;28;20087;-58
2021/03/25 03:56:35;;;;;;;29.83;17.00;;;76.80;2227.20;;;;;;5053502;28;20047;-57
2021/03/25 03:59:09;;;;;;;30.80;18.23;;;52.10;2227.20;;;;;;5053596;28;20029;-58
2021/03/25 04:01:47;;;;;;;27.10;17.00;;;76.80;2227.20;;;;;;5053684;28;20028;-59
2021/03/25 04:04:43;;;;;;;32.58;17.77;;;52.10;2227.20;;;;;;5053600;28;20397;-56
2021/03/25 04:07:19;;;;;;;32.08;16.98;;;76.90;2227.20;;;;;;4950318;28;20046;-58
2021/03/25 04:09:52;;;;;;;30.50;17.20;;;76.90;2227.20;;;;;;4946252;28;20038;-60
2021/03/25 04:12:31;;;;;;;32.85;17.27;;;77.00;2227.20;;;;;;4952545;29;20042;-59
2021/03/25 04:15:23;;;;;;;31.10;18.73;;;77.00;2227.20;;;;;;4953201;29;20024;-57
2021/03/25 04:17:57;;;;;;;28.40;16.60;;;77.10;2227.20;;;;;;4953595;29;20039;-58
2021/03/25 04:20:23;;;;;;;32.83;17.40;;;77.30;2227.20;;;;;;4953435;29;20050;-60
2021/03/25 04:22:54;;;;;;;36.40;18.80;;;77.30;2227.20;;;;;;4953350;29;20031;-59
2021/03/25 04:25:31;;;;;;;29.90;18.15;;;77.30;2227.20;;;;;;4952782;29;20426;-59
2021/03/25 04:27:56;;;;;;;31.60;18.05;;;77.10;2227.20;;;;;;4936915;29;20038;-61
2021/03/25 04:30:27;;;;;;;30.58;18.58;;;77.00;2227.20;;;;;;4953160;29;20482;-59
2021/03/25 04:32:53;;;;;;;45.78;25.05;;;77.10;2227.20;;;;;;4952992;29;20401;-60
2021/03/25 04:35:20;;;;;;;46.80;24.65;;;77.30;2227.20;;;;;;4952808;29;20114;-60
2021/03/25 04:37:48;;;;;;;48.88;24.67;;;77.20;2227.20;;;;;;4953072;29;20050;-60
2021/03/25 04:40:18;;;;;;;48.53;24.40;;;77.20;2227.20;;;;;;4952819;29;20034;-60
2021/03/25 04:42:45;;;;;;;45.75;24.92;;;77.20;2227.20;;;;;;4969762;28;20036;-59
2021/03/25 04:45:23;;;;;;;48.38;24.92;;;77.20;2227.20;;;;;;5052610;28;20037;-60
2021/03/25 04:47:51;;;;;;;48.53;25.55;;;77.10;2227.20;;;;;;5052895;28;20100;-59
2021/03/25 04:50:28;;;;;;;51.03;25.63;;;77.00;2227.20;;;;;;5053271;28;20502;-59
2021/03/25 04:53:31;;;;;;;49.53;24.40;;;77.00;2227.20;;;;;;5052483;28;20021;-59
2021/03/25 04:55:57;;;;;;;49.13;25.58;;;76.90;2227.20;;;;;;4952392;29;20043;-65
2021/03/25 04:58:36;;;;;;;48.55;26.13;;;76.90;2227.20;;;;;;4952465;29;20079;-60
2021/03/25 05:01:22;;;;;;;;;;;76.90;2227.20;;;;;;4951729;29;20137;-60
2021/03/25 05:03:49;;;;;;;44.17;24.90;;;76.90;2227.20;;;;;;4951850;29;19906;-59
2021/03/25 05:06:22;;;;;;;45.65;26.02;;;77.00;2227.20;;;;;;4952829;29;20058;-60
2021/03/25 05:08:49;;;;;;;55.17;25.95;;;77.00;2227.20;;;;;;4952547;29;20478;-59
2021/03/25 05:11:21;;;;;;;50.53;24.27;;;77.00;2227.20;;;;;;4952260;29;20035;-59
2021/03/25 05:13:47;;;;;;;44.75;24.65;;;77.00;2227.20;;;;;;4951959;29;20055;-59
2021/03/25 05:16:49;;;;;;;46.20;25.02;;;77.00;2227.20;;;;;;4952134;29;20024;-59
2021/03/25 05:19:15;;;;;;;39.35;21.55;;;77.10;2227.20;;;;;;4952136;29;20478;-59
2021/03/25 05:21:43;;;;;;;40.38;21.38;;;77.00;2227.20;;;;;;4952165;28;20090;-58
2021/03/25 05:24:33;;;;;;;42.05;22.60;;;77.00;2227.20;;;;;;4952027;29;20039;-58
2021/03/25 05:27:40;;;;;;;40.35;20.85;;;77.10;2227.20;;;;;;4952359;29;20043;-60
2021/03/25 05:30:10;;;;;;;42.80;21.23;;;77.10;2227.20;;;;;;4914177;29;20550;-59
2021/03/25 05:32:42;;;;;;;38.30;21.48;;;77.00;2227.20;;;;;;4952069;28;20082;-59
2021/03/25 05:35:12;;;;;;;41.45;23.08;;;77.00;2227.20;;;;;;4970958;28;20116;-59
2021/03/25 05:37:39;;;;;;;41.50;22.60;;;77.10;2227.20;;;;;;4971628;28;20027;-58
2021/03/25 05:40:16;;;;;;;40.70;21.58;;;77.20;2227.20;;;;;;4971138;28;20594;-60
2021/03/25 05:42:57;;;;;;;37.17;21.27;;;77.10;2227.20;;;;;;4971313;28;20093;-60
2021/03/25 05:45:28;;;;;;;37.17;20.08;;;77.10;2227.20;;;;;;4971196;28;20073;-60
2021/03/25 05:48:12;;;;;;;41.95;21.98;;;77.20;2227.20;;;;;;4971279;28;20039;-58
2021/03/25 05:51:10;;;;;;;38.00;20.27;;;77.20;2227.20;;;;;;4958691;28;20061;-62
2021/03/25 05:53:48;;;;;;;41.22;20.83;;;77.30;2227.20;;;;;;4970883;28;20426;-60
2021/03/25 05:56:44;;;;;;;42.63;21.15;;;77.30;2227.20;;;;;;4969767;28;20371;-59
2021/03/25 05:59:17;;;;;;;48.00;23.75;;;77.40;2227.20;;;;;;4970802;28;20118;-61
2021/03/25 06:01:42;;;;;;;45.83;24.55;;;77.40;2227.20;;;;;;4969836;28;20027;-58
2021/03/25 06:04:18;;;;;;;43.95;22.58;;;77.50;2227.20;;;;;;4970986;28;20033;-60
2021/03/25 06:07:32;;;;;;;44.53;25.35;;;77.50;2227.20;;;;;;5038204;28;20029;-59
2021/03/25 06:10:26;;;;;;;44.22;23.52;;;77.60;2227.20;;;;;;4951213;29;20035;-58
2021/03/25 06:13:26;;;;;;;50.88;24.50;;;77.60;2227.20;;;;;;4951922;29;20051;-61
2021/03/25 06:16:11;;;;;;;45.90;25.75;;;77.70;2227.20;;;;;;4935761;29;20035;-58
2021/03/25 06:18:45;;;;;;;43.92;23.70;;;102.40;2227.20;;;;;;4945798;29;20067;-61
2021/03/25 06:21:20;;;;;;;44.22;24.25;;;102.40;2227.20;;;;;;4951341;29;20405;-59
2021/03/25 06:23:48;;;;;;;46.67;26.33;;;102.40;2227.20;;;;;;4951915;29;20039;-58
2021/03/25 06:26:33;;;;;;;44.17;24.10;;;102.40;2227.20;;;;;;4951034;29;20066;-57
2021/03/25 06:29:23;;;;;;;43.13;23.02;;;102.50;2227.20;;;;;;4934788;29;20083;-59
2021/03/25 06:32:24;;;;;;;42.90;23.52;;;102.60;2227.20;;;;;;4942152;29;20063;-59
2021/03/25 06:34:55;;;;;;;40.20;21.20;;;102.60;2227.20;;;;;;4843442;29;20038;-59
2021/03/25 06:37:27;;;;;;;45.00;26.05;;;102.60;2227.20;;;;;;4842976;29;20401;-58
2021/03/25 06:40:13;;;;;;;39.85;21.13;;;102.60;2227.20;;;;;;4842191;29;20030;-56
2021/03/25 06:42:42;;;;;;;43.08;24.15;;;102.50;2227.20;;;;;;4842420;29;20135;-59
2021/03/25 06:45:23;;;;;;;;;;;102.60;2227.20;;;;;;4842419;29;20042;-59
2021/03/25 06:47:57;;;;;;;41.03;22.55;;;102.70;2227.20;;;;;;4930828;29;19907;-58
2021/03/25 06:50:30;;;;;;;40.40;22.35;;;102.70;2227.20;;;;;;4935941;29;20079;-57
2021/03/25 06:53:17;;;;;;;41.75;21.65;;;102.80;2201.60;;;;;;4935289;29;20048;-57
2021/03/25 06:55:43;;;;;;;37.85;21.40;;;102.90;2201.60;;;;;;4935680;29;20063;-58
2021/03/25 06:58:14;;;;;;;39.25;20.55;;;103.20;2176.00;;;;;;4935416;29;20561;-56
2021/03/25 07:00:42;;;;;;;35.90;20.25;;;128.00;2150.40;;;;;;4935614;29;20566;-59
2021/03/25 07:03:16;;;;;;;38.38;21.35;;;128.10;2124.80;;;;;;4935508;29;20031;-59
2021/03/25 07:05:42;;;;;;;35.25;20.55;;;128.20;2099.20;;;;;;4924056;29;20039;-59
2021/03/25 07:08:21;;;;;;;38.42;21.20;;;128.30;2099.20;;;;;;4933602;29;20463;-59
2021/03/25 07:10:52;;;;;;;36.33;20.88;;;128.40;2073.60;;;;;;4978841;28;20063;-58
2021/03/25 07:13:30;;;;;;;36.22;20.30;;;128.50;2048.00;;;;;;5054590;28;20045;-58
2021/03/25 07:15:56;;;;;;;35.03;20.90;;;128.50;2048.00;;;;;;5054285;28;20031;-57
2021/03/25 07:18:25;;;;;;;38.72;19.95;;;128.60;2048.00;;;;;;5044460;28;20025;-59
2021/03/25 07:21:28;;;;;;;43.80;21.35;;;128.80;2022.40;;;;;;5052646;28;20027;-58
2021/03/25 07:23:57;;;;;;;38.95;21.75;;;128.90;2022.40;;;;;;5051823;28;20017;-59
2021/03/25 07:26:23;;;;;;;;;;;153.60;1996.80;;;;;;5052849;28;20406;-63
2021/03/25 07:29:06;;;;;;;39.80;23.00;;;128.90;2022.40;;;;;;5051227;28;19911;-59
2021/03/25 07:31:38;;;;;;;46.72;24.65;;;128.80;2073.60;;;;;;5052356;28;20045;-58
2021/03/25 07:34:05;;;;;;;45.80;26.17;;;128.70;2073.60;;;;;;5051019;28;20140;-61
2021/03/25 07:36:46;;;;;;;42.38;22.77;;;128.60;2150.40;;;;;;5051597;28;20110;-61
2021/03/25 07:39:12;;;;;;;44.35;23.70;;;128.60;2176.00;;;;;;5050815;28;20062;-59
2021/03/25 07:41:44;;;;;;;45.90;26.45;;;128.60;2201.60;;;;;;5033812;28;20032;-66
2021/03/25 07:44:48;;;;;;;44.65;27.50;;;128.70;2227.20;;;;;;5051142;28;20045;-61
2021/03/25 07:47:35;;;;;;;50.55;28.55;;;128.80;2227.20;;;;;;4972459;28;20132;-61
2021/03/25 07:50:26;;;;;;;40.95;25.40;;;128.80;2227.20;;;;;;4973613;28;20027;-59
2021/03/25 07:52:53;;;;;;;45.13;26.42;;;128.80;2252.80;;;;;;4970189;28;20039;-61
2021/03/25 07:55:19;;;;;;;49.05;26.33;;;128.60;2252.80;;;;;;4969213;28;20031;-62
2021/03/25 07:57:46;;;;;;;53.67;28.33;;;128.80;2252.80;;;;;;4969152;28;20412;-58
2021/03/25 08:00:18;;;;;;;48.47;26.10;;;153.60;2227.20;;;;;;4968668;28;20034;-58
2021/03/25 08:02:44;;;;;;;47.58;27.73;;;153.70;2227.20;;;;;;4966891;28;20063;-61
2021/03/25 08:05:30;;;;;;;53.60;28.48;;;153.70;2227.20;;;;;;4969016;28;20716;-62
2021/03/25 08:08:01;;;;;;;51.53;28.60;;;153.90;2227.20;;;;;;4969698;28;20027;-63
2021/03/25 08:10:41;;;;;;;48.65;28.02;;;154.00;2201.60;;;;;;4970217;28;20039;-63
2021/03/25 08:13:27;;;;;;;44.72;25.90;;;154.00;2201.60;;;;;;4970331;28;20502;-63
2021/03/25 08:16:07;;;;;;;45.67;26.33;;;154.10;2201.60;;;;;;4970549;28;20031;-63
2021/03/25 08:18:33;;;;;;;41.80;25.90;;;154.00;2201.60;;;;;;5028769;28;20172;-62
2021/03/25 08:21:23;;;;;;;46.72;27.20;;;153.90;2201.60;;;;;;5049466;28;20111;-67
2021/03/25 08:24:10;;;;;;;44.75;24.48;;;154.00;2227.20;;;;;;5049003;28;20333;-71
2021/03/25 08:26:54;;;;;;;39.00;22.63;;;154.10;2176.00;;;;;;5050233;28;20554;-65
2021/03/25 08:29:22;;;;;;;32.15;19.90;;;154.30;2150.40;;;;;;5050472;28;20120;-60
2021/03/25 08:32:14;;;;;;;36.45;23.85;;;154.20;2048.00;;;;;;5050107;28;20513;-61
2021/03/25 08:35:17;;;;;;;40.17;22.92;;;154.20;2099.20;;;;;;4960721;28;20055;-61
2021/03/25 08:38:03;;;;;;;38.22;21.38;;;154.30;2073.60;;;;;;4953210;29;20102;-58
2021/03/25 08:40:40;;;;;;;37.22;22.50;;;154.40;2048.00;;;;;;4946064;29;20579;-58
2021/03/25 08:43:18;;;;;;;40.13;22.00;;;154.40;1971.20;;;;;;4952656;29;20034;-58
2021/03/25 08:45:57;;;;;;;34.47;19.48;;;154.40;1945.60;;;;;;4952931;28;20504;-58
2021/03/25 08:48:32;;;;;;;36.28;20.63;;;179.20;1920.00;;;;;;4952608;29;20043;-57
2021/03/25 08:51:06;;;;;;;39.47;32.38;;;179.40;1894.40;;;;;;4952761;28;20027;-59
2021/03/25 08:53:46;;;;;;;31.50;19.20;;;179.50;1792.00;;;;;;4952636;29;20147;-59
2021/03/25 08:56:37;;;;;;;32.60;18.73;;;179.60;1766.40;;;;;;4952457;28;20509;-59
2021/03/25 08:59:21;;;;;;;31.77;18.30;;;179.70;1740.80;;;;;;4944883;29;20034;-57
2021/03/25 09:01:56;;;;;;;29.40;18.20;;;179.90;1715.20;;;;;;4951191;29;20023;-58
2021/03/25 09:04:25;;;;;;;35.60;24.65;;;180.00;1664.00;;;;;;4952662;29;20043;-60
2021/03/25 09:06:51;;;;;;;35.08;28.50;;;180.00;1612.80;;;;;;4952229;29;20150;-57
2021/03/25 09:09:35;;;;;;;23.77;14.80;;;180.00;1612.80;;;;;;4936406;29;20505;-58
2021/03/25 09:12:08;;;;;;;23.75;13.52;;;204.80;1561.60;;;;;;5019520;28;20045;-59
2021/03/25 09:14:35;;;;;;;28.50;16.83;;;180.00;1484.80;;;;;;5052538;28;20031;-58
2021/03/25 09:17:04;;;;;;;27.17;16.15;;;180.00;1561.60;;;;;;5052562;28;20099;-61
2021/03/25 09:19:31;;;;;;;;;;;204.80;1561.60;;;;;;5052550;28;20021;-58
2021/03/25 09:21:59;;;;;;;31.98;18.08;;;205.20;1536.00;;;;;;5052509;28;20468;-58
2021/03/25 09:24:25;;;;;;;30.90;17.35;;;205.40;1561.60;;;;;;5052648;28;20083;-59
2021/03/25 09:27:08;;;;;;;34.15;20.00;;;205.40;1510.40;;;;;;5033462;28;20029;-58
2021/03/25 09:30:02;;;;;;;28.40;17.48;;;205.60;1536.00;;;;;;5052489;28;20032;-59
2021/03/25 09:32:36;;;;;;;29.23;15.57;;;230.40;1510.40;;;;;;5052342;28;20126;-57
2021/03/25 09:35:04;;;;;;;23.58;15.13;;;205.60;1459.20;;;;;;5051721;28;20028;-56
2021/03/25 09:37:32;;;;;;;23.45;14.05;;;230.40;1433.60;;;;;;5052249;28;20152;-57
2021/03/25 09:40:33;;;;;;;21.35;13.93;;;230.50;1356.80;;;;;;5051927;28;20013;-57
2021/03/25 09:43:26;;;;;;;19.52;11.63;;;230.50;1356.80;;;;;;5041027;28;20036;-56
2021/03/25 09:46:17;;;;;;;18.75;12.38;;;230.70;1331.20;;;;;;5052026;28;20100;-59
2021/03/25 09:48:43;;;;;;;22.30;13.02;;;230.80;1305.60;;;;;;5062491;28;20028;-58
2021/03/25 09:51:19;;;;;;;21.45;11.70;;;230.80;1280.00;;;;;;5052281;28;20510;-59
2021/03/25 09:53:54;;;;;;;19.90;10.75;;;230.90;1254.40;;;;;;5051473;28;20044;-58
2021/03/25 09:56:29;;;;;;;14.13;10.85;;;230.90;1228.80;;;;;;5052252;28;20032;-59
2021/03/25 09:58:59;;;;;;;15.55;9.65;;;230.70;1228.80;;;;;;5051723;28;20025;-58
2021/03/25 10:01:51;;;;;;;13.07;8.90;;;230.80;1203.20;;;;;;5051838;28;20028;-59
2021/03/25 10:04:27;;;;;;;15.65;9.23;;;231.10;1177.60;;;;;;5052094;28;20483;-58
2021/03/25 10:07:09;;;;;;;14.13;9.73;;;231.10;1177.60;;;;;;5052027;28;20021;-59
2021/03/25 10:09:47;;;;;;;13.35;9.02;;;231.30;1152.00;;;;;;5053693;28;20045;-58
2021/03/25 10:12:13;;;;;;;16.88;10.25;;;256.00;1177.60;;;;;;5056460;28;20039;-58
2021/03/25 10:14:49;;;;;;;15.32;9.05;;;256.20;1100.80;;;;;;5055394;28;20039;-59
2021/03/25 10:17:44;;;;;;;18.52;10.63;;;256.10;1100.80;;;;;;5064476;28;20078;-59
2021/03/25 10:20:12;;;;;;;14.50;9.23;;;256.00;1100.80;;;;;;5046568;28;20039;-58
2021/03/25 10:22:37;;;;;;;20.40;14.23;;;256.00;1100.80;;;;;;5058604;28;20060;-58
2021/03/25 10:25:07;;;;;;;11.98;8.60;;;256.00;1126.40;;;;;;5057838;28;20029;-58
2021/03/25 10:27:42;;;;;;;17.15;10.05;;;256.20;1075.20;;;;;;5058551;28;20040;-59
2021/03/25 10:30:33;;;;;;;16.48;9.77;;;256.30;1075.20;;;;;;5043505;28;20107;-59
2021/03/25 10:33:04;;;;;;;18.65;10.52;;;256.50;1075.20;;;;;;5055349;28;20072;-59
2021/03/25 10:35:34;;;;;;;15.13;9.60;;;256.70;1075.20;;;;;;5057185;28;20025;-60
2021/03/25 10:38:08;;;;;;;16.02;8.43;;;256.60;1075.20;;;;;;5056319;28;20358;-60
2021/03/25 10:40:37;;;;;;;13.52;8.10;;;256.90;998.40;;;;;;5056632;28;20112;-60
2021/03/25 10:43:24;;;;;;;14.45;10.15;;;281.60;972.80;;;;;;5056955;28;20057;-61
2021/03/25 10:45:51;;;;;;;13.18;7.72;;;256.80;998.40;;;;;;5056763;28;20036;-65
2021/03/25 10:48:29;;;;;;;12.30;7.38;;;281.70;972.80;;;;;;5058472;28;20063;-60
2021/03/25 10:51:07;;;;;;;31.48;10.20;;;282.10;972.80;;;;;;5057210;28;20131;-60
2021/03/25 10:53:38;;;;;;;13.90;8.45;;;282.10;998.40;;;;;;5054698;28;20075;-59
2021/03/25 10:56:12;;;;;;;12.75;7.70;;;282.10;972.80;;;;;;5054207;28;20105;-59
2021/03/25 10:58:41;;;;;;;14.55;8.57;;;282.50;921.60;;;;;;5055053;28;20017;-60
2021/03/25 11:01:15;;;;;;;11.30;8.57;;;307.20;972.80;;;;;;5055023;28;20063;-60
2021/03/25 11:03:42;;;;;;;13.63;9.80;;;307.30;972.80;;;;;;5054619;28;20113;-61
2021/03/25 11:06:35;;;;;;;15.23;9.75;;;307.40;998.40;;;;;;5054911;28;20352;-58
2021/03/25 11:09:26;;;;;;;14.73;10.27;;;307.50;998.40;;;;;;5055011;28;20135;-58
2021/03/25 11:12:03;;;;;;;13.30;9.48;;;307.40;998.40;;;;;;5054813;28;20029;-57
2021/03/25 11:14:31;;;;;;;13.88;9.55;;;307.50;998.40;;;;;;5054084;28;20033;-59
2021/03/25 11:17:08;;;;;;;13.95;9.95;;;307.70;998.40;;;;;;5060907;28;20021;-58
2021/03/25 11:19:34;;;;;;;13.77;9.85;;;307.70;972.80;;;;;;5060217;28;20040;-58
2021/03/25 11:22:00;;;;;;;15.15;9.80;;;308.00;972.80;;;;;;5054286;28;20025;-58
2021/03/25 11:24:34;;;;;;;16.02;10.82;;;307.90;972.80;;;;;;5055011;28;20693;-58
2021/03/25 11:27:05;;;;;;;19.75;11.90;;;307.80;972.80;;;;;;5054416;28;20025;-59
2021/03/25 11:29:38;;;;;;;16.23;11.13;;;307.70;1024.00;;;;;;5053331;28;20053;-59
2021/03/25 11:32:19;;;;;;;16.10;11.20;;;307.40;1024.00;;;;;;5054346;28;20033;-57
2021/03/25 11:34:47;;;;;;;15.77;9.70;;;308.00;1024.00;;;;;;5054084;28;20021;-58
2021/03/25 11:37:23;;;;;;;14.57;9.85;;;307.90;947.20;;;;;;5054937;28;20028;-58
2021/03/25 11:40:00;;;;;;;11.38;8.63;;;332.80;947.20;;;;;;5054244;28;20064;-58
2021/03/25 11:42:29;;;;;;;12.27;8.75;;;308.00;921.60;;;;;;5054236;28;20074;-58
2021/03/25 11:44:55;;;;;;;16.00;8.32;;;333.10;921.60;;;;;;5054067;28;20037;-57
2021/03/25 11:47:44;;;;;;;9.90;7.70;;;333.40;870.40;;;;;;5063221;28;20037;-59
2021/03/25 11:50:15;;;;;;;9.80;7.22;;;333.70;793.60;;;;;;5042430;28;20021;-61
2021/03/25 11:52:47;;;;;;;13.10;7.70;;;333.70;793.60;;;;;;5053740;28;20037;-58
2021/03/25 11:55:28;;;;;;;13.30;7.53;;;333.50;896.00;;;;;;5054616;28;20419;-59
2021/03/25 11:57:55;;;;;;;11.55;8.00;;;332.90;870.40;;;;;;5036087;28;20386;-58
2021/03/25 12:00:24;;;;;;;10.90;7.15;;;333.20;947.20;;;;;;5054440;28;20152;-59
2021/03/25 12:02:55;;;;;;;14.15;7.38;;;333.40;870.40;;;;;;5053584;28;20017;-58
2021/03/25 12:05:29;;;;;;;11.65;7.68;;;333.30;870.40;;;;;;5041121;28;20039;-58
2021/03/25 12:08:13;;;;;;;15.88;8.25;;;333.10;870.40;;;;;;5045291;28;20490;-60
2021/03/25 12:10:41;;;;;;;11.63;8.18;;;333.70;870.40;;;;;;5034911;28;20555;-59
2021/03/25 12:13:08;;;;;;;14.93;8.00;;;358.80;819.20;;;;;;5036395;28;20442;-64
2021/03/25 12:15:35;;;;;;;11.75;8.10;;;384.10;793.60;;;;;;5037294;28;20506;-64
2021/03/25 12:18:21;;;;;;;14.38;7.50;;;359.30;793.60;;;;;;5035765;28;20586;-62
2021/03/25 12:20:48;;;;;;;11.27;8.07;;;384.00;793.60;;;;;;5034112;28;20039;-66
2021/03/25 12:23:23;;;;;;;15.43;8.55;;;359.30;793.60;;;;;;5029267;28;20033;-62
2021/03/25 12:25:51;;;;;;;10.50;7.85;;;358.90;819.20;;;;;;5031079;28;20028;-64
2021/03/25 12:28:18;;;;;;;10.77;7.50;;;358.40;844.80;;;;;;5046192;28;20064;-70
2021/03/25 12:30:45;;;;;;;10.70;6.93;;;358.60;819.20;;;;;;5052460;28;20014;-70
2021/03/25 12:33:23;;;;;;;10.95;7.18;;;358.80;844.80;;;;;;5052152;28;20044;-67
2021/03/25 12:35:50;;;;;;;11.13;7.13;;;358.80;793.60;;;;;;5052826;28;20028;-69
2021/03/25 12:38:16;;;;;;;11.38;7.30;;;359.10;793.60;;;;;;5055731;28;20020;-68
2021/03/25 12:40:42;;;;;;;10.50;7.28;;;384.10;768.00;;;;;;5060859;28;20428;-62
2021/03/25 12:43:10;;;;;;;10.63;7.45;;;358.60;793.60;;;;;;5054296;28;20029;-62
2021/03/25 12:45:38;;;;;;;11.23;7.80;;;333.60;793.60;;;;;;5058197;28;20021;-62
2021/03/25 12:48:05;;;;;;;13.75;8.63;;;358.60;793.60;;;;;;5052434;28;20112;-62